createdAt,value
2019-04-29T00:01:17.087Z,6.70
2019-04-29T00:03:43.435Z,6.70
2019-04-29T00:06:09.596Z,6.70
2019-04-29T00:08:35.649Z,6.70
2019-04-29T00:11:01.710Z,6.70
2019-04-29T00:13:27.867Z,6.70
2019-04-29T00:16:12.536Z,6.70
2019-04-29T00:18:57.509Z,6.70
2019-04-29T00:21:24.460Z,6.60
2019-04-29T00:24:03.239Z,6.60
2019-04-29T00:26:18.475Z,6.60
2019-04-29T00:28:44.536Z,6.60
2019-04-29T00:31:10.592Z,6.60
2019-04-29T00:33:36.640Z,6.60
2019-04-29T00:36:02.808Z,6.50
2019-04-29T00:38:30.763Z,6.50
2019-04-29T00:41:13.875Z,6.50
2019-04-29T00:43:41.840Z,6.50
2019-04-29T00:46:08.235Z,6.50
2019-04-29T00:48:34.287Z,6.50
2019-04-29T00:51:00.335Z,6.40
2019-04-29T00:53:26.912Z,6.40
2019-04-29T00:55:53.154Z,6.40
2019-04-29T00:58:19.210Z,6.40
2019-04-29T01:00:45.264Z,6.40
2019-04-29T01:03:11.335Z,6.40
2019-04-29T01:05:37.415Z,6.40
2019-04-29T01:08:03.543Z,6.40
2019-04-29T01:10:29.607Z,6.40
2019-04-29T01:12:55.655Z,6.40
2019-04-29T01:15:21.823Z,6.50
2019-04-29T01:17:47.942Z,6.50
2019-04-29T01:20:14.104Z,6.50
2019-04-29T01:22:40.660Z,6.60
2019-04-29T01:25:06.832Z,6.60
2019-04-29T01:27:34.799Z,6.60
2019-04-29T01:30:00.907Z,6.70
2019-04-29T01:32:26.965Z,6.80
2019-04-29T01:34:54.340Z,6.80
2019-04-29T01:37:22.387Z,6.80
2019-04-29T01:39:50.346Z,6.90
2019-04-29T01:42:18.329Z,6.90
2019-04-29T01:44:44.378Z,7.00
2019-04-29T01:47:10.419Z,7.00
2019-04-29T01:49:36.479Z,7.10
2019-04-29T01:52:02.840Z,7.10
2019-04-29T01:54:28.892Z,7.10
2019-04-29T01:56:54.936Z,7.20
2019-04-29T01:59:20.995Z,7.20
2019-04-29T02:01:47.043Z,7.30
2019-04-29T02:04:13.167Z,7.30
2019-04-29T02:06:39.247Z,7.30
2019-04-29T02:09:10.013Z,7.40
2019-04-29T02:11:35.684Z,7.40
2019-04-29T02:14:02.072Z,7.50
2019-04-29T02:16:28.131Z,7.50
2019-04-29T02:18:54.245Z,7.50
2019-04-29T02:21:20.293Z,7.50
2019-04-29T02:24:04.699Z,7.60
2019-04-29T02:26:30.755Z,7.50
2019-04-29T02:28:56.799Z,7.60
2019-04-29T02:31:38.047Z,7.60
2019-04-29T02:34:04.293Z,7.60
2019-04-29T02:36:30.414Z,7.60
2019-04-29T02:39:10.249Z,7.60
2019-04-29T02:41:38.205Z,7.60
2019-04-29T02:44:06.171Z,7.60
2019-04-29T02:46:32.415Z,7.60
2019-04-29T02:48:58.476Z,7.60
2019-04-29T02:51:44.398Z,7.60
2019-04-29T02:54:11.065Z,7.60
2019-04-29T02:56:37.772Z,7.60
2019-04-29T02:59:05.811Z,7.60
2019-04-29T03:01:42.792Z,7.60
2019-04-29T03:04:10.744Z,7.70
2019-04-29T03:06:36.807Z,7.70
2019-04-29T03:09:05.467Z,7.70
2019-04-29T03:11:31.523Z,7.70
2019-04-29T03:13:57.571Z,7.70
2019-04-29T03:16:23.740Z,7.80
2019-04-29T03:18:52.927Z,7.80
2019-04-29T03:21:21.171Z,7.80
2019-04-29T03:23:47.231Z,7.80
2019-04-29T03:26:13.357Z,7.80
2019-04-29T03:28:39.432Z,7.80
2019-04-29T03:31:05.482Z,7.90
2019-04-29T03:33:31.651Z,7.90
2019-04-29T03:35:57.799Z,7.90
2019-04-29T03:38:23.947Z,8.00
2019-04-29T03:40:50.028Z,8.00
2019-04-29T03:43:16.189Z,8.00
2019-04-29T03:45:42.255Z,8.10
2019-04-29T03:48:08.405Z,8.00
2019-04-29T03:50:34.562Z,8.10
2019-04-29T03:53:00.618Z,8.10
2019-04-29T03:55:39.041Z,8.10
2019-04-29T03:57:54.842Z,8.10
2019-04-29T04:00:20.916Z,8.10
2019-04-29T04:02:51.752Z,8.20
2019-04-29T04:05:34.922Z,8.20
2019-04-29T04:08:05.699Z,8.20
2019-04-29T04:10:31.763Z,8.20
2019-04-29T04:12:57.821Z,8.30
2019-04-29T04:15:23.873Z,8.30
2019-04-29T04:17:57.651Z,8.20
2019-04-29T04:20:24.073Z,8.30
2019-04-29T04:22:50.132Z,8.30
2019-04-29T04:25:17.338Z,8.30
2019-04-29T04:27:43.980Z,8.40
2019-04-29T04:30:10.945Z,8.40
2019-04-29T04:32:37.004Z,8.40
2019-04-29T04:35:06.417Z,8.40
2019-04-29T04:37:32.471Z,8.40
2019-04-29T04:39:58.624Z,8.40
2019-04-29T04:42:24.683Z,8.40
2019-04-29T04:44:50.753Z,8.50
2019-04-29T04:47:17.113Z,8.50
2019-04-29T04:49:43.304Z,8.50
2019-04-29T04:52:09.383Z,8.50
2019-04-29T04:54:35.432Z,8.50
2019-04-29T04:57:01.483Z,8.60
2019-04-29T04:59:27.556Z,8.60
2019-04-29T05:01:53.636Z,8.60
2019-04-29T05:04:19.683Z,8.70
2019-04-29T05:06:45.732Z,8.70
2019-04-29T05:09:11.787Z,8.70
2019-04-29T05:11:37.884Z,8.80
2019-04-29T05:14:03.927Z,8.80
2019-04-29T05:16:29.971Z,8.90
2019-04-29T05:18:56.028Z,8.90
2019-04-29T05:21:22.112Z,9.00
2019-04-29T05:23:48.163Z,9.00
2019-04-29T05:26:14.207Z,9.00
2019-04-29T05:28:40.259Z,9.10
2019-04-29T05:31:06.316Z,9.10
2019-04-29T05:33:32.375Z,9.20
2019-04-29T05:36:05.928Z,9.20
2019-04-29T05:38:42.795Z,9.30
2019-04-29T05:41:08.842Z,9.40
2019-04-29T05:43:36.791Z,9.40
2019-04-29T05:46:07.392Z,9.50
2019-04-29T05:48:33.251Z,9.50
2019-04-29T05:51:01.280Z,9.50
2019-04-29T05:53:38.319Z,9.50
2019-04-29T05:56:04.452Z,9.60
2019-04-29T05:58:33.020Z,9.70
2019-04-29T06:01:00.381Z,9.70
2019-04-29T06:03:26.431Z,9.80
2019-04-29T06:05:52.489Z,9.80
2019-04-29T06:08:18.538Z,9.90
2019-04-29T06:10:44.591Z,9.90
2019-04-29T06:13:10.755Z,9.90
2019-04-29T06:15:36.808Z,10.00
2019-04-29T06:18:02.888Z,10.00
2019-04-29T06:20:28.948Z,10.00
2019-04-29T06:22:54.999Z,10.00
2019-04-29T06:25:21.082Z,10.00
2019-04-29T06:27:47.127Z,10.00
2019-04-29T06:30:13.685Z,10.00
2019-04-29T06:32:39.744Z,10.00
2019-04-29T06:35:06.074Z,10.10
2019-04-29T06:37:32.313Z,10.10
2019-04-29T06:39:58.415Z,10.20
2019-04-29T06:42:24.480Z,10.20
2019-04-29T06:44:50.788Z,10.20
2019-04-29T06:47:17.217Z,10.20
2019-04-29T06:49:43.396Z,10.20
2019-04-29T06:52:09.535Z,10.20
2019-04-29T06:54:35.600Z,10.20
2019-04-29T06:57:01.649Z,10.20
2019-04-29T06:59:27.718Z,10.30
2019-04-29T07:01:53.859Z,10.20
2019-04-29T07:04:19.919Z,10.20
2019-04-29T07:06:56.764Z,10.30
2019-04-29T07:09:13.952Z,10.30
2019-04-29T07:11:39.999Z,10.30
2019-04-29T07:14:06.061Z,10.40
2019-04-29T07:16:32.222Z,10.40
2019-04-29T07:18:58.473Z,10.50
2019-04-29T07:21:24.535Z,10.50
2019-04-29T07:23:50.603Z,10.50
2019-04-29T07:26:16.687Z,10.50
2019-04-29T07:28:42.740Z,10.60
2019-04-29T07:31:10.259Z,10.60
2019-04-29T07:33:36.658Z,10.60
2019-04-29T07:36:10.822Z,10.70
2019-04-29T07:38:41.171Z,10.60
2019-04-29T07:40:59.069Z,10.60
2019-04-29T07:43:25.319Z,10.60
2019-04-29T07:46:10.379Z,10.60
2019-04-29T07:48:36.778Z,10.60
2019-04-29T07:51:05.948Z,10.60
2019-04-29T07:53:40.192Z,10.60
2019-04-29T07:56:01.633Z,10.50
2019-04-29T07:58:28.458Z,10.50
2019-04-29T08:00:56.346Z,10.50
2019-04-29T08:03:22.585Z,10.40
2019-04-29T08:05:50.368Z,10.40
2019-04-29T08:08:20.904Z,10.40
2019-04-29T08:10:54.021Z,10.40
2019-04-29T08:13:13.052Z,10.30
2019-04-29T08:15:41.418Z,10.30
2019-04-29T08:18:11.197Z,10.30
2019-04-29T08:20:35.513Z,10.30
2019-04-29T08:23:04.168Z,10.20
2019-04-29T08:25:30.424Z,10.20
2019-04-29T08:27:56.468Z,10.20
2019-04-29T08:30:22.528Z,10.20
2019-04-29T08:32:48.580Z,10.20
2019-04-29T08:35:14.651Z,10.10
2019-04-29T08:37:40.704Z,10.10
2019-04-29T08:40:15.957Z,10.10
2019-04-29T08:42:46.694Z,10.10
2019-04-29T08:45:25.196Z,10.20
2019-04-29T08:47:52.555Z,10.30
2019-04-29T08:50:18.715Z,10.30
2019-04-29T08:52:44.807Z,10.40
2019-04-29T08:55:11.361Z,10.30
2019-04-29T08:57:37.566Z,10.40
2019-04-29T09:00:06.283Z,10.30
2019-04-29T09:02:35.110Z,10.30
2019-04-29T09:05:00.306Z,10.30
2019-04-29T09:07:26.375Z,10.20
2019-04-29T09:09:56.258Z,10.20
2019-04-29T09:12:24.239Z,10.20
2019-04-29T09:14:48.364Z,10.20
2019-04-29T09:17:20.605Z,10.20
2019-04-29T09:19:42.403Z,10.20
2019-04-29T09:22:10.367Z,10.20
2019-04-29T09:24:38.329Z,10.20
2019-04-29T09:27:09.778Z,10.20
2019-04-29T09:29:37.219Z,10.20
2019-04-29T09:32:04.287Z,10.30
2019-04-29T09:34:30.353Z,10.30
2019-04-29T09:36:56.469Z,10.40
2019-04-29T09:39:22.521Z,10.50
2019-04-29T09:41:56.187Z,10.70
2019-04-29T09:44:24.151Z,10.80
2019-04-29T09:46:50.207Z,10.90
2019-04-29T09:49:16.268Z,11.10
2019-04-29T09:51:42.336Z,11.20
2019-04-29T09:54:09.667Z,11.40
2019-04-29T09:56:36.454Z,11.50
2019-04-29T09:59:23.576Z,11.70
2019-04-29T10:01:55.128Z,11.70
2019-04-29T10:04:31.121Z,11.80
2019-04-29T10:06:58.055Z,11.80
2019-04-29T10:09:24.124Z,11.80
2019-04-29T10:11:50.211Z,11.70
2019-04-29T10:14:16.263Z,11.70
2019-04-29T10:17:00.557Z,11.80
2019-04-29T10:19:31.317Z,11.90
2019-04-29T10:21:57.391Z,11.90
2019-04-29T10:24:23.504Z,11.90
2019-04-29T10:26:49.598Z,11.90
2019-04-29T10:29:20.754Z,12.00
2019-04-29T10:31:46.807Z,12.00
2019-04-29T10:34:13.065Z,12.10
2019-04-29T10:36:39.128Z,12.10
2019-04-29T10:39:27.035Z,12.10
2019-04-29T10:41:53.703Z,12.00
2019-04-29T10:44:38.286Z,11.90
2019-04-29T10:47:25.846Z,11.90
2019-04-29T10:49:53.908Z,12.00
2019-04-29T10:52:19.970Z,12.00
2019-04-29T10:54:46.015Z,12.10
2019-04-29T10:57:14.665Z,12.30
2019-04-29T10:59:44.979Z,12.50
2019-04-29T11:02:33.095Z,12.80
2019-04-29T11:05:03.692Z,13.00
2019-04-29T11:07:37.708Z,13.10
2019-04-29T11:10:24.412Z,13.20
2019-04-29T11:12:42.096Z,13.40
2019-04-29T11:15:09.839Z,13.50
2019-04-29T11:17:39.790Z,13.70
2019-04-29T11:20:06.110Z,13.70
2019-04-29T11:22:38.229Z,13.80
2019-04-29T11:25:18.360Z,14.00
2019-04-29T11:27:48.819Z,14.20
2019-04-29T11:30:16.884Z,14.40
2019-04-29T11:32:47.608Z,14.80
2019-04-29T11:35:24.609Z,14.80
2019-04-29T11:37:49.967Z,14.60
2019-04-29T11:40:20.630Z,14.50
2019-04-29T11:42:48.332Z,14.40
2019-04-29T11:45:14.395Z,14.30
2019-04-29T11:47:40.595Z,14.60
2019-04-29T11:50:11.994Z,14.90
2019-04-29T11:52:37.243Z,15.20
2019-04-29T11:55:06.799Z,15.40
2019-04-29T11:57:53.116Z,15.40
2019-04-29T12:00:33.488Z,15.60
2019-04-29T12:03:01.558Z,15.90
2019-04-29T12:05:47.664Z,16.20
2019-04-29T12:08:17.153Z,16.20
2019-04-29T12:10:48.363Z,15.90
2019-04-29T12:13:11.615Z,15.70
2019-04-29T12:15:45.058Z,15.60
2019-04-29T12:18:20.859Z,15.80
2019-04-29T12:20:54.919Z,16.10
2019-04-29T12:23:20.991Z,16.40
2019-04-29T12:25:47.035Z,16.50
2019-04-29T12:28:19.395Z,16.40
2019-04-29T12:30:45.555Z,16.40
2019-04-29T12:33:22.396Z,16.40
2019-04-29T12:35:58.678Z,16.40
2019-04-29T12:38:39.325Z,16.30
2019-04-29T12:40:56.348Z,16.20
2019-04-29T12:43:41.003Z,16.30
2019-04-29T12:46:17.964Z,16.50
2019-04-29T12:48:44.128Z,16.80
2019-04-29T12:51:10.188Z,17.10
2019-04-29T12:53:36.252Z,16.80
2019-04-29T12:56:02.417Z,16.80
2019-04-29T12:58:28.488Z,16.90
2019-04-29T13:01:01.085Z,16.70
2019-04-29T13:03:40.966Z,16.60
2019-04-29T13:06:38.801Z,16.70
2019-04-29T13:08:55.796Z,16.80
2019-04-29T13:11:35.988Z,17.00
2019-04-29T13:13:51.461Z,17.00
2019-04-29T13:16:25.811Z,17.10
2019-04-29T13:19:10.598Z,17.30
2019-04-29T13:21:27.547Z,17.50
2019-04-29T13:24:12.081Z,17.70
2019-04-29T13:26:28.169Z,17.80
2019-04-29T13:29:00.343Z,17.80
2019-04-29T13:31:20.166Z,17.80
2019-04-29T13:33:50.896Z,17.80
2019-04-29T13:36:14.218Z,17.60
2019-04-29T13:38:40.395Z,17.50
2019-04-29T13:41:13.450Z,17.40
2019-04-29T13:43:35.566Z,17.40
2019-04-29T13:46:09.847Z,17.60
2019-04-29T13:48:59.688Z,17.80
2019-04-29T13:51:35.801Z,17.90
2019-04-29T13:53:58.777Z,18.00
2019-04-29T13:56:34.965Z,18.10
2019-04-29T13:58:51.879Z,18.10
2019-04-29T14:01:39.790Z,18.20
2019-04-29T14:04:06.459Z,18.10
2019-04-29T14:06:34.128Z,18.00
2019-04-29T14:09:03.952Z,17.90
2019-04-29T14:11:28.195Z,17.80
2019-04-29T14:13:54.311Z,17.70
2019-04-29T14:16:20.372Z,17.70
2019-04-29T14:18:50.027Z,17.90
2019-04-29T14:21:20.528Z,17.80
2019-04-29T14:23:47.630Z,17.60
2019-04-29T14:26:13.681Z,17.70
2019-04-29T14:28:39.752Z,17.60
2019-04-29T14:31:05.808Z,17.60
2019-04-29T14:33:33.759Z,17.50
2019-04-29T14:36:01.717Z,17.50
2019-04-29T14:38:27.796Z,17.60
2019-04-29T14:40:53.947Z,17.60
2019-04-29T14:43:38.778Z,17.60
2019-04-29T14:46:21.977Z,17.70
2019-04-29T14:48:50.941Z,17.70
2019-04-29T14:51:17.000Z,17.60
2019-04-29T14:53:55.623Z,17.60
2019-04-29T14:56:11.019Z,17.60
2019-04-29T14:58:37.203Z,17.40
2019-04-29T15:01:09.395Z,17.30
2019-04-29T15:03:54.217Z,17.30
2019-04-29T15:06:20.396Z,17.40
2019-04-29T15:08:46.673Z,17.30
2019-04-29T15:11:12.826Z,17.40
2019-04-29T15:13:39.058Z,17.40
2019-04-29T15:16:16.267Z,17.40
2019-04-29T15:18:50.580Z,17.40
2019-04-29T15:21:32.687Z,17.80
2019-04-29T15:23:55.707Z,17.40
2019-04-29T15:26:21.812Z,17.50
2019-04-29T15:28:50.764Z,17.50
2019-04-29T15:31:18.364Z,17.40
2019-04-29T15:33:44.435Z,17.40
2019-04-29T15:36:10.483Z,17.40
2019-04-29T15:38:36.549Z,17.30
2019-04-29T15:41:05.420Z,17.20
2019-04-29T15:43:46.410Z,17.10
2019-04-29T15:45:58.552Z,17.10
2019-04-29T15:48:24.605Z,17.10
2019-04-29T15:50:50.662Z,17.00
2019-04-29T15:53:16.716Z,16.90
2019-04-29T15:55:42.783Z,16.90
2019-04-29T15:58:09.240Z,16.90
2019-04-29T16:00:37.929Z,16.90
2019-04-29T16:03:03.443Z,16.90
2019-04-29T16:05:31.395Z,16.70
2019-04-29T16:08:11.407Z,16.60
2019-04-29T16:10:58.001Z,16.50
2019-04-29T16:13:27.738Z,16.40
2019-04-29T16:15:52.068Z,16.30
2019-04-29T16:18:18.133Z,16.20
2019-04-29T16:20:44.191Z,16.10
2019-04-29T16:23:10.271Z,16.10
2019-04-29T16:25:40.648Z,16.00
2019-04-29T16:28:04.365Z,15.90
2019-04-29T16:30:31.749Z,15.80
2019-04-29T16:32:58.287Z,15.70
2019-04-29T16:35:27.075Z,15.60
2019-04-29T16:37:52.320Z,15.60
2019-04-29T16:40:18.801Z,15.50
2019-04-29T16:42:49.375Z,15.40
2019-04-29T16:45:15.435Z,15.40
2019-04-29T16:47:47.432Z,15.40
2019-04-29T16:50:09.788Z,15.40
2019-04-29T16:52:35.831Z,15.30
2019-04-29T16:55:05.703Z,15.30
2019-04-29T16:57:31.575Z,15.20
2019-04-29T16:59:57.645Z,15.20
2019-04-29T17:02:24.192Z,15.10
2019-04-29T17:04:50.251Z,15.10
2019-04-29T17:07:17.102Z,15.10
2019-04-29T17:09:51.387Z,15.00
2019-04-29T17:12:17.435Z,15.00
2019-04-29T17:15:03.181Z,14.90
2019-04-29T17:17:13.360Z,14.80
2019-04-29T17:19:39.672Z,14.70
2019-04-29T17:22:24.942Z,14.60
2019-04-29T17:24:34.035Z,14.50
2019-04-29T17:27:07.611Z,14.40
2019-04-29T17:29:55.518Z,14.40
2019-04-29T17:32:27.308Z,14.30
2019-04-29T17:34:59.358Z,14.20
2019-04-29T17:37:22.903Z,14.10
2019-04-29T17:39:49.023Z,14.00
2019-04-29T17:42:15.075Z,14.00
2019-04-29T17:44:43.259Z,13.90
2019-04-29T17:47:13.801Z,13.90
2019-04-29T17:49:56.962Z,13.80
2019-04-29T17:52:27.515Z,13.80
2019-04-29T17:54:58.227Z,13.70
2019-04-29T17:57:32.285Z,13.60
2019-04-29T18:00:05.055Z,13.60
2019-04-29T18:02:32.984Z,13.40
2019-04-29T18:05:01.000Z,13.40
2019-04-29T18:07:45.093Z,13.30
2019-04-29T18:10:17.605Z,13.30
2019-04-29T18:12:45.256Z,13.20
2019-04-29T18:15:17.431Z,13.10
2019-04-29T18:17:40.024Z,13.00
2019-04-29T18:20:13.571Z,12.90
2019-04-29T18:22:52.763Z,12.80
2019-04-29T18:25:31.043Z,12.70
2019-04-29T18:28:00.036Z,12.60
2019-04-29T18:30:35.419Z,12.50
2019-04-29T18:32:55.168Z,12.40
2019-04-29T18:35:21.324Z,12.40
2019-04-29T18:37:47.528Z,12.30
2019-04-29T18:40:16.025Z,12.20
2019-04-29T18:42:43.271Z,12.20
2019-04-29T18:45:10.515Z,12.10
2019-04-29T18:47:38.762Z,12.00
2019-04-29T18:50:05.341Z,11.90
2019-04-29T18:52:31.407Z,11.80
2019-04-29T18:54:57.462Z,11.80
2019-04-29T18:57:28.742Z,11.70
2019-04-29T18:59:51.479Z,11.60
2019-04-29T19:02:17.543Z,11.50
2019-04-29T19:04:46.878Z,11.40
2019-04-29T19:07:15.393Z,11.40
2019-04-29T19:09:42.593Z,11.20
2019-04-29T19:12:08.639Z,11.10
2019-04-29T19:14:35.261Z,11.00
2019-04-29T19:17:01.645Z,10.90
2019-04-29T19:19:30.785Z,10.90
2019-04-29T19:21:55.895Z,10.80
2019-04-29T19:24:22.135Z,10.80
2019-04-29T19:26:48.190Z,10.70
2019-04-29T19:29:15.629Z,10.60
2019-04-29T19:31:48.113Z,10.50
2019-04-29T19:34:14.647Z,10.30
2019-04-29T19:36:37.903Z,10.30
2019-04-29T19:39:05.210Z,10.10
2019-04-29T19:41:31.482Z,10.00
2019-04-29T19:43:57.533Z,9.90
2019-04-29T19:46:26.893Z,9.80
2019-04-29T19:48:51.584Z,9.70
2019-04-29T19:51:18.628Z,9.60
2019-04-29T19:53:49.412Z,9.40
2019-04-29T19:56:21.055Z,9.30
2019-04-29T19:58:42.001Z,9.20
2019-04-29T20:01:13.508Z,9.00
2019-04-29T20:03:41.701Z,8.90
2019-04-29T20:06:21.556Z,8.80
2019-04-29T20:08:53.110Z,8.70
2019-04-29T20:11:14.552Z,8.60
2019-04-29T20:13:40.808Z,8.50
2019-04-29T20:16:12.775Z,8.30
2019-04-29T20:21:24.946Z,8.10
2019-04-29T20:23:46.832Z,8.00
2019-04-29T20:26:18.388Z,7.90
2019-04-29T20:28:41.187Z,7.80
2019-04-29T20:31:16.336Z,7.70
2019-04-29T20:33:35.588Z,7.60
2019-04-29T20:36:02.476Z,7.50
2019-04-29T20:38:29.827Z,7.40
2019-04-29T20:40:57.102Z,7.40
2019-04-29T20:43:25.963Z,7.30
2019-04-29T20:45:51.321Z,7.20
2019-04-29T20:48:19.595Z,7.10
2019-04-29T20:50:52.399Z,7.10
2019-04-29T20:53:18.431Z,7.00
2019-04-29T20:55:46.102Z,6.90
2019-04-29T20:58:12.452Z,6.90
2019-04-29T21:00:39.446Z,6.80
2019-04-29T21:03:09.469Z,6.70
2019-04-29T21:05:47.134Z,6.60
2019-04-29T21:08:03.378Z,6.60
2019-04-29T21:10:30.578Z,6.50
2019-04-29T21:13:08.874Z,6.50
2019-04-29T21:15:37.496Z,6.40
2019-04-29T21:18:05.364Z,6.30
2019-04-29T21:20:31.687Z,6.30
2019-04-29T21:23:00.824Z,6.20
2019-04-29T21:25:29.499Z,6.20
2019-04-29T21:27:58.182Z,6.10
2019-04-29T21:30:27.272Z,6.10
2019-04-29T21:32:49.660Z,6.00
2019-04-29T21:35:18.669Z,6.00
2019-04-29T21:37:48.107Z,5.90
2019-04-29T21:40:18.798Z,5.90
2019-04-29T21:42:47.375Z,5.80
2019-04-29T21:45:17.404Z,5.80
2019-04-29T21:47:45.663Z,5.70
2019-04-29T21:52:38.386Z,5.60
2019-04-29T21:55:05.208Z,5.60
2019-04-29T21:57:31.395Z,5.50
2019-04-29T21:59:57.502Z,5.50
2019-04-29T22:02:25.923Z,5.40
2019-04-29T22:04:51.871Z,5.40
2019-04-29T22:07:17.951Z,5.30
2019-04-29T22:09:47.228Z,5.30
2019-04-29T22:12:14.214Z,5.30
2019-04-29T22:14:40.254Z,5.30
2019-04-29T22:17:06.540Z,5.20
2019-04-29T22:19:32.587Z,5.20
2019-04-29T22:24:27.672Z,5.10
2019-04-29T22:26:58.146Z,5.10
2019-04-29T22:29:22.114Z,5.10
2019-04-29T22:31:48.176Z,5.00
2019-04-29T22:34:18.095Z,5.00
2019-04-29T22:36:42.200Z,5.00
2019-04-29T22:39:08.258Z,4.90
2019-04-29T22:41:41.911Z,4.90
2019-04-29T22:44:09.887Z,4.90
2019-04-29T22:46:39.932Z,4.80
2019-04-29T22:49:05.739Z,4.80
2019-04-29T22:51:31.923Z,4.80
2019-04-29T22:53:57.984Z,4.80
2019-04-29T22:56:27.556Z,4.70
2019-04-29T22:58:52.029Z,4.70
2019-04-29T23:01:18.084Z,4.70
2019-04-29T23:03:45.125Z,4.70
2019-04-29T23:06:12.195Z,4.60
2019-04-29T23:08:38.380Z,4.60
2019-04-29T23:11:05.474Z,4.60
2019-04-29T23:13:32.333Z,4.60
2019-04-29T23:16:01.771Z,4.60
2019-04-29T23:18:29.133Z,4.50
2019-04-29T23:20:59.525Z,4.50
2019-04-29T23:23:33.427Z,4.50
2019-04-29T23:25:59.955Z,4.50
2019-04-29T23:28:26.946Z,4.40
2019-04-29T23:30:53.442Z,4.40
2019-04-29T23:33:22.976Z,4.40
2019-04-29T23:35:47.668Z,4.40
2019-04-29T23:38:15.325Z,4.30
2019-04-29T23:43:08.013Z,4.30
2019-04-29T23:45:35.119Z,4.20
2019-04-29T23:48:01.340Z,4.20
2019-04-29T23:50:28.203Z,4.20
2019-04-29T23:52:55.675Z,4.20
2019-04-29T23:55:27.758Z,4.10
2019-04-29T23:58:10.428Z,4.10
